Time;durP1;ratioP1;P1;durP2;ratioP2;P2;SDS_P1;SDS_P2;PMS_P1;PMS_P2;Temp;Humidity;BMP_temperature;BMP_pressure;BME280_temperature;BME280_humidity;BME280_pressure;Samples;Min_cycle;Max_cycle;Signal;HPM_P1;HPM_P2
2021/11/20 00:00:27;;;;;;;24.00;15.03;;;;;;;;;;4988315;28;20210;-52
2021/11/20 00:02:54;;;;;;;19.80;14.43;;;;;;;;;;4996573;28;20641;-53
2021/11/20 00:05:23;;;;;;;21.20;15.50;;;;;;;;;;5008255;28;20182;-53
2021/11/20 00:07:53;;;;;;;20.77;14.67;;;;;;;;;;4992355;28;20188;-52
2021/11/20 00:10:24;;;;;;;20.27;16.23;;;;;;;;;;5010689;28;20261;-54
2021/11/20 00:12:51;;;;;;;19.70;14.60;;;;;;;;;;5001189;28;20639;-53
2021/11/20 00:15:23;;;;;;;18.30;14.13;;;;;;;;;;4989764;28;20250;-53
2021/11/20 00:17:52;;;;;;;21.33;15.87;;;;;;;;;;4980470;28;20272;-53
2021/11/20 00:20:19;;;;;;;18.67;14.87;;;;;;;;;;4986528;28;20197;-52
2021/11/20 00:22:47;;;;;;;17.93;14.00;;;;;;;;;;4986537;28;20186;-52
2021/11/20 00:25:26;;;;;;;20.00;15.30;;;;;;;;;;4997991;28;20230;-52
2021/11/20 00:27:55;;;;;;;18.33;14.80;;;;;;;;;;5016163;28;20188;-53
2021/11/20 00:30:40;;;;;;;19.03;14.70;;;;;;;;;;4998760;28;20210;-52
2021/11/20 00:33:15;;;;;;;19.50;15.37;;;;;;;;;;4986098;28;20409;-53
2021/11/20 00:35:42;;;;;;;18.87;14.20;;;;;;;;;;4980451;28;20749;-54
2021/11/20 00:38:09;;;;;;;18.90;14.80;;;;;;;;;;4973387;28;20182;-53
2021/11/20 00:40:50;;;;;;;19.07;16.00;;;;;;;;;;4985380;28;20209;-52
2021/11/20 00:43:17;;;;;;;17.77;14.97;;;;;;;;;;5003633;28;20243;-53
2021/11/20 00:45:46;;;;;;;20.37;15.60;;;;;;;;;;5006117;28;20241;-52
2021/11/20 00:48:12;;;;;;;19.23;16.10;;;;;;;;;;5009083;28;20186;-53
2021/11/20 00:50:42;;;;;;;24.83;16.53;;;;;;;;;;4999519;28;20187;-52
2021/11/20 00:53:15;;;;;;;19.93;15.23;;;;;;;;;;5003732;28;20701;-53
2021/11/20 00:55:41;;;;;;;19.03;14.70;;;;;;;;;;5008974;28;20230;-54
2021/11/20 00:58:08;;;;;;;18.40;14.70;;;;;;;;;;4981897;28;20187;-53
2021/11/20 01:00:39;;;;;;;18.67;14.73;;;;;;;;;;5001820;28;20316;-53
2021/11/20 01:03:06;;;;;;;23.97;16.47;;;;;;;;;;5007899;28;20170;-52
2021/11/20 01:05:33;;;;;;;21.57;16.27;;;;;;;;;;4988851;28;20171;-53
2021/11/20 01:07:59;;;;;;;17.37;14.33;;;;;;;;;;4992392;28;20646;-53
2021/11/20 01:10:27;;;;;;;18.63;15.30;;;;;;;;;;4989417;28;20559;-53
2021/11/20 01:12:53;;;;;;;17.17;15.20;;;;;;;;;;5004985;28;20546;-53
2021/11/20 01:15:22;;;;;;;19.93;15.47;;;;;;;;;;4988739;28;20248;-53
2021/11/20 01:17:49;;;;;;;21.13;15.17;;;;;;;;;;5007215;28;20253;-54
2021/11/20 01:20:16;;;;;;;20.63;15.97;;;;;;;;;;5008842;28;20221;-53
2021/11/20 01:22:42;;;;;;;18.50;14.63;;;;;;;;;;5006262;28;20269;-52
2021/11/20 01:25:08;;;;;;;17.90;14.33;;;;;;;;;;5007573;28;20182;-55
2021/11/20 01:27:35;;;;;;;18.17;14.70;;;;;;;;;;4987051;28;20658;-53
2021/11/20 01:30:01;;;;;;;19.53;15.07;;;;;;;;;;4985021;28;20190;-55
2021/11/20 01:32:28;;;;;;;17.23;14.67;;;;;;;;;;4994316;28;20604;-54
2021/11/20 01:34:54;;;;;;;24.33;16.30;;;;;;;;;;5008839;28;20244;-54
2021/11/20 01:37:20;;;;;;;19.17;14.83;;;;;;;;;;5000520;28;20186;-54
2021/11/20 01:39:47;;;;;;;22.70;14.80;;;;;;;;;;5007825;28;20213;-54
2021/11/20 01:42:21;;;;;;;19.03;14.80;;;;;;;;;;4996676;28;20261;-55
2021/11/20 01:45:14;;;;;;;19.10;15.00;;;;;;;;;;4985504;28;20198;-51
2021/11/20 01:47:40;;;;;;;19.17;16.00;;;;;;;;;;4997017;28;20237;-53
2021/11/20 01:50:09;;;;;;;23.90;16.13;;;;;;;;;;4989804;28;20179;-54
2021/11/20 01:52:43;;;;;;;18.73;15.30;;;;;;;;;;4980000;28;20680;-51
2021/11/20 01:55:09;;;;;;;19.27;15.67;;;;;;;;;;5007856;28;20167;-52
2021/11/20 01:57:55;;;;;;;17.73;14.73;;;;;;;;;;4989085;28;20198;-53
2021/11/20 02:00:38;;;;;;;18.87;14.53;;;;;;;;;;4976320;28;20238;-53
2021/11/20 02:03:12;;;;;;;19.67;14.87;;;;;;;;;;4998570;28;20198;-53
2021/11/20 02:05:44;;;;;;;19.50;15.50;;;;;;;;;;4996573;28;20185;-52
2021/11/20 02:08:28;;;;;;;21.30;15.03;;;;;;;;;;4995946;28;20265;-52
2021/11/20 02:10:57;;;;;;;19.93;15.50;;;;;;;;;;4981187;28;20657;-53
2021/11/20 02:13:26;;;;;;;20.70;16.67;;;;;;;;;;5006495;28;20222;-52
2021/11/20 02:15:56;;;;;;;18.33;15.47;;;;;;;;;;5002083;28;20230;-52
2021/11/20 02:18:23;;;;;;;19.97;16.80;;;;;;;;;;5002708;28;20229;-52
2021/11/20 02:20:51;;;;;;;18.77;15.53;;;;;;;;;;4983576;28;20209;-54
2021/11/20 02:23:18;;;;;;;17.83;14.10;;;;;;;;;;4986194;28;20530;-52
2021/11/20 02:25:44;;;;;;;21.47;15.93;;;;;;;;;;5001626;28;20179;-52
2021/11/20 02:28:11;;;;;;;23.07;16.23;;;;;;;;;;4982564;28;20174;-52
2021/11/20 02:30:41;;;;;;;19.10;14.37;;;;;;;;;;5004281;28;20668;-52
2021/11/20 02:33:26;;;;;;;17.10;14.20;;;;;;;;;;4988777;28;20182;-53
2021/11/20 02:35:56;;;;;;;17.63;15.37;;;;;;;;;;5000620;28;20696;-52
2021/11/20 02:38:25;;;;;;;17.67;14.40;;;;;;;;;;5007409;28;20213;-52
2021/11/20 02:40:52;;;;;;;18.90;15.70;;;;;;;;;;4986675;28;20194;-51
2021/11/20 02:43:19;;;;;;;16.50;14.40;;;;;;;;;;5001458;28;20210;-53
2021/11/20 02:45:48;;;;;;;19.47;14.80;;;;;;;;;;5006308;28;20190;-52
2021/11/20 02:48:14;;;;;;;19.07;14.27;;;;;;;;;;4985410;28;20182;-52
2021/11/20 02:50:47;;;;;;;15.40;13.50;;;;;;;;;;4972554;28;20183;-51
2021/11/20 02:53:15;;;;;;;16.73;14.10;;;;;;;;;;4999203;28;20178;-52
2021/11/20 02:55:49;;;;;;;17.47;14.17;;;;;;;;;;4979536;28;20198;-52
2021/11/20 02:58:17;;;;;;;15.43;13.07;;;;;;;;;;4982207;28;20183;-52
2021/11/20 03:00:44;;;;;;;17.13;14.80;;;;;;;;;;4987356;28;20194;-52
2021/11/20 03:03:11;;;;;;;16.13;14.23;;;;;;;;;;4998742;28;20179;-51
2021/11/20 03:05:38;;;;;;;14.83;13.23;;;;;;;;;;4978730;28;20174;-51
2021/11/20 03:08:04;;;;;;;17.03;13.67;;;;;;;;;;4988362;28;20653;-51
2021/11/20 03:10:31;;;;;;;15.83;12.90;;;;;;;;;;5006397;28;20668;-51
2021/11/20 03:12:57;;;;;;;15.43;13.60;;;;;;;;;;4986882;28;20329;-51
2021/11/20 03:15:23;;;;;;;15.30;13.47;;;;;;;;;;4978143;28;20229;-50
2021/11/20 03:17:50;;;;;;;16.97;14.50;;;;;;;;;;5009746;28;20773;-51
2021/11/20 03:20:18;;;;;;;14.53;12.93;;;;;;;;;;4986630;28;20209;-50
2021/11/20 03:22:50;;;;;;;18.13;14.20;;;;;;;;;;5011200;28;20170;-51
2021/11/20 03:25:17;;;;;;;17.27;15.23;;;;;;;;;;4995620;28;20186;-51
2021/11/20 03:27:43;;;;;;;19.03;13.90;;;;;;;;;;4984414;28;20582;-51
2021/11/20 03:30:10;;;;;;;16.63;14.00;;;;;;;;;;4996050;28;20182;-52
2021/11/20 03:32:36;;;;;;;16.50;13.77;;;;;;;;;;4990354;28;20201;-51
2021/11/20 03:35:04;;;;;;;17.07;14.50;;;;;;;;;;5010788;28;20179;-51
2021/11/20 03:37:30;;;;;;;15.83;13.50;;;;;;;;;;5009670;28;20214;-52
2021/11/20 03:39:57;;;;;;;16.37;14.33;;;;;;;;;;4992053;28;20207;-51
2021/11/20 03:42:23;;;;;;;17.63;15.50;;;;;;;;;;4995409;28;20174;-52
2021/11/20 03:44:49;;;;;;;19.83;16.07;;;;;;;;;;5007022;28;20693;-50
2021/11/20 03:47:16;;;;;;;18.10;15.60;;;;;;;;;;4988479;28;20350;-50
2021/11/20 03:49:44;;;;;;;18.33;16.23;;;;;;;;;;5006065;28;20219;-51
2021/11/20 03:52:11;;;;;;;17.77;15.47;;;;;;;;;;4980099;28;20194;-51
2021/11/20 03:54:38;;;;;;;20.53;16.53;;;;;;;;;;4992339;28;20179;-52
2021/11/20 03:57:05;;;;;;;19.87;15.90;;;;;;;;;;5008098;28;20234;-51
2021/11/20 03:59:31;;;;;;;19.13;15.63;;;;;;;;;;4994073;28;21104;-50
2021/11/20 04:01:59;;;;;;;20.93;15.97;;;;;;;;;;5006574;28;20178;-50
2021/11/20 04:04:25;;;;;;;21.27;15.83;;;;;;;;;;5010776;28;20175;-52
2021/11/20 04:06:52;;;;;;;22.07;16.90;;;;;;;;;;4987059;28;20241;-51
2021/11/20 04:09:18;;;;;;;19.70;16.10;;;;;;;;;;4992593;28;20250;-51
2021/11/20 04:11:48;;;;;;;20.77;17.17;;;;;;;;;;5002106;28;20741;-51
2021/11/20 04:14:16;;;;;;;23.83;17.50;;;;;;;;;;4991278;28;20229;-52
2021/11/20 04:16:42;;;;;;;28.50;19.10;;;;;;;;;;5002538;28;20918;-50
2021/11/20 04:19:09;;;;;;;21.40;17.83;;;;;;;;;;5010673;28;20676;-52
2021/11/20 04:21:35;;;;;;;22.40;17.60;;;;;;;;;;5004033;28;20195;-52
2021/11/20 04:24:02;;;;;;;23.93;19.33;;;;;;;;;;4977902;28;20557;-51
2021/11/20 04:26:29;;;;;;;20.73;16.90;;;;;;;;;;5011105;28;20174;-51
2021/11/20 04:28:56;;;;;;;24.53;18.07;;;;;;;;;;4990387;28;20197;-51
2021/11/20 04:31:23;;;;;;;26.00;19.53;;;;;;;;;;5006075;28;20263;-52
2021/11/20 04:33:50;;;;;;;25.10;18.83;;;;;;;;;;4992579;28;20187;-50
2021/11/20 04:36:22;;;;;;;26.73;19.53;;;;;;;;;;5002178;28;20669;-51
2021/11/20 04:38:48;;;;;;;25.50;18.27;;;;;;;;;;5003296;28;20181;-51
2021/11/20 04:41:15;;;;;;;25.70;19.53;;;;;;;;;;4994742;28;20678;-52
2021/11/20 04:43:43;;;;;;;22.80;18.00;;;;;;;;;;4977681;28;20187;-51
2021/11/20 04:46:10;;;;;;;24.73;18.80;;;;;;;;;;4993706;28;20539;-51
2021/11/20 04:48:36;;;;;;;25.97;19.50;;;;;;;;;;5024295;28;20264;-51
2021/11/20 04:51:04;;;;;;;24.07;18.57;;;;;;;;;;5009271;28;20704;-51
2021/11/20 04:53:31;;;;;;;29.20;17.77;;;;;;;;;;5002033;28;20185;-51
2021/11/20 04:55:58;;;;;;;23.97;17.77;;;;;;;;;;4991113;28;20717;-52
2021/11/20 04:58:27;;;;;;;30.60;20.07;;;;;;;;;;5004228;28;20171;-51
2021/11/20 05:00:55;;;;;;;25.70;19.80;;;;;;;;;;5006420;28;20463;-51
2021/11/20 05:03:22;;;;;;;27.37;20.93;;;;;;;;;;5006877;28;20180;-52
2021/11/20 05:05:49;;;;;;;25.70;18.73;;;;;;;;;;5008138;28;20175;-51
2021/11/20 05:08:16;;;;;;;22.53;18.93;;;;;;;;;;5004855;28;20171;-52
2021/11/20 05:10:42;;;;;;;26.17;19.27;;;;;;;;;;4989439;28;20273;-52
2021/11/20 05:13:08;;;;;;;27.73;19.27;;;;;;;;;;5001551;28;20182;-51
2021/11/20 05:15:36;;;;;;;27.70;19.17;;;;;;;;;;5008712;28;20519;-52
2021/11/20 05:18:03;;;;;;;24.57;18.87;;;;;;;;;;5008280;28;20671;-51
2021/11/20 05:20:29;;;;;;;21.93;18.20;;;;;;;;;;4987770;28;20199;-51
2021/11/20 05:22:55;;;;;;;28.13;19.87;;;;;;;;;;5006829;28;20183;-52
2021/11/20 05:25:21;;;;;;;28.73;21.30;;;;;;;;;;5003226;28;20213;-51
2021/11/20 05:27:52;;;;;;;27.40;19.13;;;;;;;;;;5008181;28;20186;-52
2021/11/20 05:30:22;;;;;;;27.33;19.93;;;;;;;;;;4994811;28;20238;-51
2021/11/20 05:32:49;;;;;;;26.50;18.83;;;;;;;;;;4989792;28;20189;-51
2021/11/20 05:35:17;;;;;;;26.93;20.03;;;;;;;;;;4993040;28;20175;-51
2021/11/20 05:37:44;;;;;;;28.20;19.30;;;;;;;;;;5005623;28;20279;-52
2021/11/20 05:40:13;;;;;;;30.10;21.80;;;;;;;;;;4988113;28;20225;-52
2021/11/20 05:42:40;;;;;;;27.57;19.20;;;;;;;;;;4999739;28;20183;-52
2021/11/20 05:45:06;;;;;;;32.30;20.13;;;;;;;;;;5008755;28;20182;-51
2021/11/20 05:47:33;;;;;;;26.87;18.97;;;;;;;;;;5002004;28;20183;-51
2021/11/20 05:49:59;;;;;;;29.90;21.07;;;;;;;;;;5006885;28;20190;-51
2021/11/20 05:52:25;;;;;;;29.40;20.23;;;;;;;;;;4990267;28;20183;-53
2021/11/20 05:54:54;;;;;;;29.67;19.47;;;;;;;;;;4982420;28;20192;-51
2021/11/20 05:57:23;;;;;;;28.70;19.90;;;;;;;;;;5020327;28;20242;-53
2021/11/20 05:59:53;;;;;;;30.37;20.70;;;;;;;;;;4973133;28;20274;-52
2021/11/20 06:02:19;;;;;;;26.77;18.90;;;;;;;;;;5002662;28;20555;-52
2021/11/20 06:04:46;;;;;;;27.50;19.23;;;;;;;;;;4980873;28;20559;-52
2021/11/20 06:07:12;;;;;;;27.17;19.47;;;;;;;;;;5000132;28;20542;-52
2021/11/20 06:09:39;;;;;;;30.10;21.33;;;;;;;;;;5005596;28;20265;-51
2021/11/20 06:12:06;;;;;;;26.47;19.27;;;;;;;;;;5004139;28;20259;-52
2021/11/20 06:14:32;;;;;;;25.03;19.60;;;;;;;;;;5007825;28;20222;-52
2021/11/20 06:16:58;;;;;;;25.70;18.90;;;;;;;;;;5002811;28;20179;-51
2021/11/20 06:19:24;;;;;;;26.83;20.23;;;;;;;;;;4983444;28;20193;-53
2021/11/20 06:21:51;;;;;;;30.63;19.23;;;;;;;;;;4973507;28;20561;-51
2021/11/20 06:24:20;;;;;;;26.20;19.73;;;;;;;;;;5006195;28;20185;-51
2021/11/20 06:26:47;;;;;;;29.50;19.93;;;;;;;;;;5001044;28;20490;-51
2021/11/20 06:29:13;;;;;;;30.20;19.87;;;;;;;;;;4995201;28;20593;-53
2021/11/20 06:31:40;;;;;;;29.33;19.57;;;;;;;;;;5001782;28;20589;-52
2021/11/20 06:34:06;;;;;;;31.10;21.00;;;;;;;;;;5003846;28;20190;-52
2021/11/20 06:36:33;;;;;;;33.73;20.37;;;;;;;;;;4993058;28;20238;-54
2021/11/20 06:38:59;;;;;;;27.77;19.00;;;;;;;;;;4989876;28;20716;-51
2021/11/20 06:41:26;;;;;;;29.40;18.97;;;;;;;;;;4995260;28;20198;-52
2021/11/20 06:43:53;;;;;;;48.50;19.23;;;;;;;;;;5006752;28;21046;-52
2021/11/20 06:46:20;;;;;;;31.80;18.73;;;;;;;;;;4999081;28;20179;-53
2021/11/20 06:48:46;;;;;;;27.10;19.07;;;;;;;;;;5006114;28;20178;-53
2021/11/20 06:51:13;;;;;;;28.07;18.33;;;;;;;;;;5006216;28;20591;-52
2021/11/20 06:53:40;;;;;;;32.20;20.30;;;;;;;;;;5010110;28;20571;-52
2021/11/20 06:56:13;;;;;;;32.27;19.57;;;;;;;;;;4992099;28;20198;-53
2021/11/20 07:01:35;;;;;;;29.20;19.10;;;;;;;;;;4919877;28;20260;-52
2021/11/20 07:04:04;;;;;;;30.10;19.37;;;;;;;;;;5000307;28;20626;-51
2021/11/20 07:06:33;;;;;;;26.80;18.83;;;;;;;;;;5004102;28;20183;-53
2021/11/20 07:08:59;;;;;;;29.13;19.90;;;;;;;;;;5011481;28;20273;-53
2021/11/20 07:11:26;;;;;;;29.37;19.70;;;;;;;;;;4993789;28;20693;-51
2021/11/20 07:13:53;;;;;;;27.13;18.20;;;;;;;;;;4989835;28;20257;-53
2021/11/20 07:16:20;;;;;;;26.70;18.80;;;;;;;;;;5009216;28;20182;-52
2021/11/20 07:18:46;;;;;;;27.73;19.63;;;;;;;;;;5007318;28;20593;-51
2021/11/20 07:21:12;;;;;;;30.13;19.50;;;;;;;;;;5008115;28;20545;-52
2021/11/20 07:23:38;;;;;;;26.50;18.50;;;;;;;;;;5009020;28;20645;-54
2021/11/20 07:26:06;;;;;;;26.10;17.57;;;;;;;;;;5008700;28;20179;-51
2021/11/20 07:28:32;;;;;;;27.77;19.27;;;;;;;;;;5010141;28;20657;-52
2021/11/20 07:30:59;;;;;;;29.03;18.67;;;;;;;;;;4983639;28;20248;-52
2021/11/20 07:33:26;;;;;;;27.33;19.30;;;;;;;;;;5011816;28;20182;-53
2021/11/20 07:36:00;;;;;;;30.47;19.33;;;;;;;;;;4987555;28;20193;-54
2021/11/20 07:38:29;;;;;;;29.93;19.03;;;;;;;;;;4990321;28;20189;-52
2021/11/20 07:40:55;;;;;;;25.97;18.23;;;;;;;;;;5010414;28;20717;-54
2021/11/20 07:43:21;;;;;;;30.40;19.50;;;;;;;;;;5010579;28;20261;-53
2021/11/20 07:45:48;;;;;;;25.87;17.97;;;;;;;;;;4992008;28;20179;-51
2021/11/20 07:48:16;;;;;;;28.93;19.53;;;;;;;;;;5008276;28;20281;-53
2021/11/20 07:50:44;;;;;;;25.07;18.30;;;;;;;;;;4990645;28;20195;-52
2021/11/20 07:53:10;;;;;;;31.03;19.47;;;;;;;;;;5004068;28;20498;-54
2021/11/20 07:55:37;;;;;;;26.60;17.93;;;;;;;;;;4982589;28;20206;-52
2021/11/20 07:58:04;;;;;;;30.43;18.30;;;;;;;;;;5007340;28;20182;-52
2021/11/20 08:00:30;;;;;;;30.13;19.53;;;;;;;;;;4992126;28;20237;-54
2021/11/20 08:03:00;;;;;;;30.77;19.43;;;;;;;;;;5009404;28;20533;-52
2021/11/20 08:05:28;;;;;;;28.57;18.50;;;;;;;;;;5009459;28;20182;-53
2021/11/20 08:07:55;;;;;;;25.20;17.57;;;;;;;;;;5000120;28;20195;-54
2021/11/20 08:10:22;;;;;;;27.47;18.23;;;;;;;;;;4984382;28;20191;-52
2021/11/20 08:12:49;;;;;;;27.37;19.50;;;;;;;;;;4980391;28;20179;-52
2021/11/20 08:15:15;;;;;;;32.03;19.97;;;;;;;;;;5007325;28;20223;-53
2021/11/20 08:17:41;;;;;;;28.03;19.80;;;;;;;;;;4997465;28;20182;-51
2021/11/20 08:20:09;;;;;;;27.73;19.67;;;;;;;;;;5004136;28;20374;-52
2021/11/20 08:22:38;;;;;;;27.77;18.00;;;;;;;;;;5007602;28;20175;-53
2021/11/20 08:25:05;;;;;;;29.17;19.07;;;;;;;;;;4997646;28;20174;-53
2021/11/20 08:27:31;;;;;;;29.60;20.93;;;;;;;;;;5000154;28;20551;-52
2021/11/20 08:29:58;;;;;;;26.50;19.70;;;;;;;;;;4985528;28;20651;-52
2021/11/20 08:32:24;;;;;;;24.93;18.00;;;;;;;;;;4989566;28;20174;-53
2021/11/20 08:34:55;;;;;;;32.77;21.17;;;;;;;;;;4997843;28;20188;-54
2021/11/20 08:37:24;;;;;;;29.63;18.80;;;;;;;;;;5009370;28;20179;-53
2021/11/20 08:39:53;;;;;;;25.03;15.60;;;;;;;;;;5003079;28;20223;-53
2021/11/20 08:42:19;;;;;;;30.10;19.30;;;;;;;;;;4992889;28;20535;-52
2021/11/20 08:44:45;;;;;;;31.43;19.43;;;;;;;;;;5002350;28;20182;-52
2021/11/20 08:47:13;;;;;;;31.17;19.03;;;;;;;;;;4977097;28;21090;-54
2021/11/20 08:49:40;;;;;;;31.93;18.00;;;;;;;;;;4984248;28;20186;-52
2021/11/20 08:52:08;;;;;;;28.07;19.47;;;;;;;;;;4996898;28;20182;-53
2021/11/20 08:54:38;;;;;;;29.13;18.83;;;;;;;;;;5008323;28;20607;-52
2021/11/20 08:57:05;;;;;;;27.93;19.00;;;;;;;;;;4992100;28;20208;-52
2021/11/20 08:59:32;;;;;;;28.43;19.27;;;;;;;;;;5003788;28;20190;-52
2021/11/20 09:02:01;;;;;;;28.80;19.43;;;;;;;;;;5007902;28;20233;-53
2021/11/20 09:04:35;;;;;;;32.70;21.50;;;;;;;;;;5006306;28;20701;-52
2021/11/20 09:07:06;;;;;;;31.27;19.43;;;;;;;;;;4992119;28;20189;-53
2021/11/20 09:09:49;;;;;;;32.90;18.83;;;;;;;;;;5006664;28;20257;-52
2021/11/20 09:12:31;;;;;;;28.53;18.33;;;;;;;;;;4995874;28;20178;-52
2021/11/20 09:15:00;;;;;;;23.33;16.83;;;;;;;;;;4996877;28;20736;-52
2021/11/20 09:17:26;;;;;;;27.37;18.83;;;;;;;;;;4973870;28;20673;-52
2021/11/20 09:19:53;;;;;;;24.17;17.50;;;;;;;;;;5006505;28;20179;-52
2021/11/20 09:22:19;;;;;;;24.83;17.97;;;;;;;;;;5004737;28;20182;-53
2021/11/20 09:24:46;;;;;;;23.93;16.00;;;;;;;;;;4982234;28;20197;-55
2021/11/20 09:27:13;;;;;;;23.87;18.40;;;;;;;;;;4994224;28;20618;-54
2021/11/20 09:29:40;;;;;;;27.93;18.30;;;;;;;;;;4974365;28;20218;-52
2021/11/20 09:32:07;;;;;;;23.07;17.37;;;;;;;;;;4992434;28;20587;-54
2021/11/20 09:34:36;;;;;;;23.90;17.80;;;;;;;;;;5006551;28;20221;-53
2021/11/20 09:37:03;;;;;;;24.17;17.23;;;;;;;;;;4987811;28;21037;-52
2021/11/20 09:39:31;;;;;;;23.30;17.57;;;;;;;;;;5009766;28;20277;-51
2021/11/20 09:42:00;;;;;;;27.43;18.90;;;;;;;;;;5004108;28;20225;-52
2021/11/20 09:44:27;;;;;;;24.13;17.57;;;;;;;;;;4987142;28;20187;-53
2021/11/20 09:46:56;;;;;;;21.67;17.30;;;;;;;;;;4978557;28;20269;-54
2021/11/20 09:49:34;;;;;;;22.83;17.93;;;;;;;;;;5009328;28;20178;-53
2021/11/20 09:52:01;;;;;;;24.70;17.87;;;;;;;;;;4991235;28;20200;-51
2021/11/20 09:54:29;;;;;;;24.90;17.70;;;;;;;;;;5007997;28;20630;-54
2021/11/20 09:56:57;;;;;;;24.47;18.00;;;;;;;;;;5005442;28;20217;-52
2021/11/20 09:59:27;;;;;;;25.03;17.07;;;;;;;;;;5008520;28;20516;-53
2021/11/20 10:02:02;;;;;;;25.00;17.50;;;;;;;;;;5006355;28;20209;-52
2021/11/20 10:04:33;;;;;;;21.40;16.50;;;;;;;;;;4979507;28;20182;-52
2021/11/20 10:07:10;;;;;;;22.87;17.93;;;;;;;;;;4986939;28;20179;-51
2021/11/20 10:09:44;;;;;;;23.20;16.43;;;;;;;;;;4997488;28;20196;-52
2021/11/20 10:12:23;;;;;;;24.37;18.00;;;;;;;;;;5004088;28;20849;-52
2021/11/20 10:15:12;;;;;;;23.93;16.83;;;;;;;;;;5005755;28;20272;-52
2021/11/20 10:17:56;;;;;;;26.70;18.53;;;;;;;;;;4996319;28;20584;-54
2021/11/20 10:20:50;;;;;;;28.57;18.07;;;;;;;;;;4989404;28;20288;-52
2021/11/20 10:23:34;;;;;;;30.33;18.63;;;;;;;;;;4964841;28;20202;-52
2021/11/20 10:26:20;;;;;;;30.60;19.37;;;;;;;;;;5008435;28;20202;-52
2021/11/20 10:29:01;;;;;;;29.23;17.13;;;;;;;;;;4987743;28;20182;-52
2021/11/20 10:31:30;;;;;;;26.80;16.87;;;;;;;;;;5007502;28;20186;-52
2021/11/20 10:34:00;;;;;;;28.50;20.45;;;;;;;;;;4987847;28;20434;-51
2021/11/20 10:36:34;;;;;;;27.63;18.63;;;;;;;;;;5005431;28;20214;-52
2021/11/20 10:39:00;;;;;;;27.13;17.20;;;;;;;;;;4992623;28;20262;-52
2021/11/20 10:41:35;;;;;;;30.33;17.83;;;;;;;;;;5003960;28;20330;-52
2021/11/20 10:44:12;;;;;;;25.80;17.30;;;;;;;;;;4987074;28;20281;-53
2021/11/20 10:46:50;;;;;;;26.03;18.07;;;;;;;;;;5004552;28;20166;-52
2021/11/20 10:49:19;;;;;;;27.87;17.87;;;;;;;;;;5026242;28;20652;-52
2021/11/20 10:51:52;;;;;;;24.27;17.10;;;;;;;;;;5008361;28;20673;-52
2021/11/20 10:54:30;;;;;;;26.27;17.33;;;;;;;;;;4987394;28;20232;-52
2021/11/20 10:57:08;;;;;;;26.17;17.07;;;;;;;;;;5006714;28;20809;-52
2021/11/20 10:59:52;;;;;;;23.70;16.17;;;;;;;;;;4992101;28;20238;-52
2021/11/20 11:02:21;;;;;;;25.70;16.73;;;;;;;;;;4990081;28;20182;-52
2021/11/20 11:04:56;;;;;;;26.03;16.53;;;;;;;;;;5002367;28;20646;-52
2021/11/20 11:07:32;;;;;;;25.37;16.20;;;;;;;;;;5002875;28;20178;-52
2021/11/20 11:10:07;;;;;;;22.80;16.87;;;;;;;;;;4997914;28;20190;-52
2021/11/20 11:12:45;;;;;;;23.20;16.30;;;;;;;;;;4986217;28;20634;-52
2021/11/20 11:15:18;;;;;;;24.10;16.60;;;;;;;;;;4998195;28;20206;-52
2021/11/20 11:18:16;;;;;;;25.60;16.03;;;;;;;;;;4987361;28;20540;-52
2021/11/20 11:21:01;;;;;;;21.20;15.00;;;;;;;;;;5004295;28;20210;-52
2021/11/20 11:23:46;;;;;;;24.43;16.37;;;;;;;;;;4998434;28;20298;-52
2021/11/20 11:26:15;;;;;;;23.87;16.70;;;;;;;;;;4973184;28;20619;-53
2021/11/20 11:29:07;;;;;;;22.73;16.90;;;;;;;;;;4986778;28;20285;-49
2021/11/20 11:31:36;;;;;;;22.40;14.93;;;;;;;;;;5003323;28;20704;-52
2021/11/20 11:34:23;;;;;;;20.17;14.87;;;;;;;;;;5007713;28;20597;-53
2021/11/20 11:36:52;;;;;;;22.23;15.07;;;;;;;;;;5006626;28;20205;-51
2021/11/20 11:39:41;;;;;;;22.90;15.87;;;;;;;;;;4975096;28;20260;-53
2021/11/20 11:42:19;;;;;;;20.73;14.60;;;;;;;;;;5010113;28;20244;-52
2021/11/20 11:44:59;;;;;;;18.20;14.30;;;;;;;;;;5008742;28;20202;-53
2021/11/20 11:49:16;;;;;;;22.20;15.00;;;;;;;;;;5067074;27;20278;-50
2021/11/20 11:51:57;;;;;;;20.60;14.57;;;;;;;;;;5046353;28;20185;-51
2021/11/20 11:54:39;;;;;;;23.87;14.43;;;;;;;;;;5044325;28;20176;-53
2021/11/20 11:57:20;;;;;;;20.43;15.07;;;;;;;;;;5014415;28;20675;-53
2021/11/20 11:59:51;;;;;;;20.37;13.30;;;;;;;;;;5044359;28;20165;-53
2021/11/20 12:02:22;;;;;;;31.57;14.67;;;;;;;;;;5031320;28;20189;-54
2021/11/20 12:04:54;;;;;;;25.90;13.23;;;;;;;;;;5013000;28;20676;-53
2021/11/20 12:07:41;;;;;;;32.17;16.43;;;;;;;;;;5030961;28;20200;-53
2021/11/20 12:10:16;;;;;;;27.47;14.47;;;;;;;;;;5026941;28;20162;-53
2021/11/20 12:13:05;;;;;;;21.77;13.27;;;;;;;;;;5035947;28;20173;-53
2021/11/20 12:15:42;;;;;;;24.07;13.43;;;;;;;;;;5025901;28;20652;-53
2021/11/20 12:18:12;;;;;;;45.20;15.63;;;;;;;;;;5044421;28;20601;-53
2021/11/20 12:20:57;;;;;;;41.27;14.43;;;;;;;;;;5007981;28;20606;-55
2021/11/20 12:23:25;;;;;;;22.03;12.93;;;;;;;;;;5025502;28;20189;-54
2021/11/20 12:25:56;;;;;;;19.07;13.17;;;;;;;;;;5041482;28;20278;-53
2021/11/20 12:28:28;;;;;;;23.97;13.57;;;;;;;;;;5031244;28;20691;-53
2021/11/20 12:31:03;;;;;;;36.17;15.47;;;;;;;;;;5029575;28;20593;-54
2021/11/20 12:33:48;;;;;;;21.93;12.10;;;;;;;;;;5024215;28;20230;-53
2021/11/20 12:36:32;;;;;;;33.10;12.83;;;;;;;;;;5024882;28;20252;-52
2021/11/20 12:39:17;;;;;;;17.33;11.87;;;;;;;;;;5039248;28;20192;-53
2021/11/20 12:41:43;;;;;;;16.73;12.60;;;;;;;;;;5036997;28;20181;-53
2021/11/20 12:44:13;;;;;;;22.97;11.53;;;;;;;;;;5026510;28;20533;-54
2021/11/20 12:46:48;;;;;;;16.33;12.00;;;;;;;;;;5025258;28;20181;-52
2021/11/20 12:49:33;;;;;;;18.27;10.80;;;;;;;;;;5024449;28;20305;-53
2021/11/20 12:52:20;;;;;;;18.07;11.83;;;;;;;;;;5024823;28;20182;-53
2021/11/20 12:54:53;;;;;;;34.17;14.53;;;;;;;;;;5024279;28;20177;-53
2021/11/20 12:57:23;;;;;;;18.40;12.13;;;;;;;;;;5012528;28;20206;-54
2021/11/20 12:59:51;;;;;;;41.93;13.30;;;;;;;;;;5016205;28;20648;-52
2021/11/20 13:02:50;;;;;;;15.57;12.07;;;;;;;;;;4998368;28;20280;-53
2021/11/20 13:05:28;;;;;;;15.73;11.70;;;;;;;;;;4956352;28;20186;-56
2021/11/20 13:07:59;;;;;;;17.03;11.70;;;;;;;;;;4991540;28;20209;-53
2021/11/20 13:10:29;;;;;;;13.40;11.83;;;;;;;;;;4987001;28;20182;-53
2021/11/20 13:13:14;;;;;;;13.80;11.43;;;;;;;;;;5010436;28;20651;-54
2021/11/20 13:15:59;;;;;;;13.83;11.40;;;;;;;;;;5007569;28;20174;-53
2021/11/20 13:18:27;;;;;;;15.40;11.53;;;;;;;;;;4993201;28;20181;-53
2021/11/20 13:20:54;;;;;;;15.33;10.23;;;;;;;;;;5008620;28;20286;-55
2021/11/20 13:23:22;;;;;;;13.47;11.13;;;;;;;;;;4992364;28;20182;-54
2021/11/20 13:26:00;;;;;;;14.50;11.00;;;;;;;;;;4985252;28;20832;-52
2021/11/20 13:28:40;;;;;;;13.33;10.83;;;;;;;;;;4994332;28;20740;-53
2021/11/20 13:31:07;;;;;;;13.07;10.47;;;;;;;;;;5009066;28;20229;-55
2021/11/20 13:33:34;;;;;;;12.53;11.20;;;;;;;;;;5008538;28;20182;-53
2021/11/20 13:36:01;;;;;;;14.37;11.17;;;;;;;;;;5009823;28;20174;-55
2021/11/20 13:38:28;;;;;;;12.00;10.27;;;;;;;;;;5010777;28;20182;-53
2021/11/20 13:40:56;;;;;;;12.83;10.10;;;;;;;;;;5010975;28;20174;-53
2021/11/20 13:43:26;;;;;;;11.97;10.43;;;;;;;;;;5010725;28;20689;-55
2021/11/20 13:45:54;;;;;;;12.00;10.10;;;;;;;;;;5010069;28;20653;-54
2021/11/20 13:48:24;;;;;;;13.03;10.90;;;;;;;;;;4992379;28;20226;-54
2021/11/20 13:50:50;;;;;;;13.70;10.90;;;;;;;;;;4986451;28;20183;-53
2021/11/20 13:53:35;;;;;;;13.33;10.77;;;;;;;;;;5009564;28;20186;-55
2021/11/20 13:56:05;;;;;;;13.57;10.57;;;;;;;;;;5009888;28;20202;-53
2021/11/20 13:58:34;;;;;;;11.60;10.20;;;;;;;;;;5010769;28;20614;-53
2021/11/20 14:01:02;;;;;;;12.23;10.63;;;;;;;;;;5008802;28;20248;-53
2021/11/20 14:03:28;;;;;;;12.60;10.70;;;;;;;;;;4993232;28;20236;-53
2021/11/20 14:05:54;;;;;;;13.73;10.60;;;;;;;;;;4991884;28;20681;-53
2021/11/20 14:08:21;;;;;;;11.57;10.37;;;;;;;;;;5003661;28;20204;-55
2021/11/20 14:10:58;;;;;;;11.10;9.67;;;;;;;;;;5009174;28;20170;-53
2021/11/20 14:13:28;;;;;;;13.03;10.83;;;;;;;;;;4992124;28;20178;-54
2021/11/20 14:15:55;;;;;;;12.50;11.20;;;;;;;;;;5009305;28;20173;-53
2021/11/20 14:18:22;;;;;;;11.77;10.50;;;;;;;;;;5008591;28;20187;-54
2021/11/20 14:20:50;;;;;;;13.27;11.80;;;;;;;;;;5009638;28;20186;-54
2021/11/20 14:23:19;;;;;;;12.40;11.10;;;;;;;;;;4992038;28;20198;-53
2021/11/20 14:25:46;;;;;;;13.20;11.47;;;;;;;;;;4975759;28;20186;-54
2021/11/20 14:28:12;;;;;;;12.43;11.03;;;;;;;;;;4998739;28;20202;-54
2021/11/20 14:30:40;;;;;;;13.07;11.27;;;;;;;;;;4991149;28;20685;-53
2021/11/20 14:33:08;;;;;;;13.10;11.57;;;;;;;;;;5008478;28;20182;-53
2021/11/20 14:35:34;;;;;;;13.83;11.90;;;;;;;;;;4991300;28;20210;-51
2021/11/20 14:38:01;;;;;;;12.67;11.10;;;;;;;;;;5010338;28;20190;-54